createdAt,value
2022-09-05T00:00:48.906Z,1.60
2022-09-05T00:01:48.916Z,1.60
2022-09-05T00:02:49.650Z,1.30
2022-09-05T00:03:49.064Z,1.40
2022-09-05T00:04:55.725Z,1.40
2022-09-05T00:06:02.180Z,1.20
2022-09-05T00:06:49.836Z,1.50
2022-09-05T00:07:59.220Z,1.40
2022-09-05T00:08:50.253Z,1.20
2022-09-05T00:09:49.762Z,1.50
2022-09-05T00:11:18.047Z,1.40
2022-09-05T00:11:49.777Z,1.60
2022-09-05T00:12:48.795Z,1.80
2022-09-05T00:13:50.748Z,1.60
2022-09-05T00:15:16.648Z,1.50
2022-09-05T00:15:49.780Z,1.80
2022-09-05T00:16:48.728Z,1.60
2022-09-05T00:18:28.418Z,1.70
2022-09-05T00:24:19.027Z,2.00
2022-09-05T00:24:19.570Z,1.70
2022-09-05T00:24:21.469Z,1.70
2022-09-05T00:24:30.062Z,1.70
2022-09-05T00:24:34.978Z,1.80
2022-09-05T00:24:35.776Z,1.80
2022-09-05T00:25:07.199Z,1.60
2022-09-05T00:25:49.750Z,1.80
2022-09-05T00:26:50.081Z,1.60
2022-09-05T00:27:48.608Z,1.50
2022-09-05T00:28:48.595Z,1.50
2022-09-05T00:31:06.097Z,1.70
2022-09-05T00:31:28.929Z,1.70
2022-09-05T00:31:55.708Z,1.80
2022-09-05T00:32:49.587Z,1.80
2022-09-05T00:33:49.222Z,1.90
2022-09-05T00:34:48.551Z,1.70
2022-09-05T00:35:48.520Z,1.70
2022-09-05T00:36:48.532Z,1.60
2022-09-05T00:37:48.799Z,1.70
2022-09-05T00:38:51.232Z,1.70
2022-09-05T00:39:50.656Z,1.70
2022-09-05T00:40:49.470Z,2.10
2022-09-05T00:41:48.465Z,1.60
2022-09-05T00:42:48.460Z,1.80
2022-09-05T00:43:48.773Z,1.60
2022-09-05T00:44:48.415Z,1.80
2022-09-05T00:45:48.415Z,1.60
2022-09-05T00:46:48.425Z,1.60
2022-09-05T00:47:48.555Z,1.70
2022-09-05T00:48:48.379Z,1.50
2022-09-05T00:49:48.386Z,1.80
2022-09-05T00:50:49.226Z,1.60
2022-09-05T00:51:48.345Z,1.70
2022-09-05T00:53:06.288Z,1.60
2022-09-05T00:53:49.318Z,1.50
2022-09-05T00:54:48.320Z,1.60
2022-09-05T00:55:50.258Z,1.70
2022-09-05T00:56:48.300Z,1.70
2022-09-05T00:57:49.228Z,1.80
2022-09-05T00:58:49.232Z,1.70
2022-09-05T00:59:52.050Z,1.60
2022-09-05T01:00:49.247Z,1.70
2022-09-05T01:01:48.382Z,1.70
2022-09-05T01:02:51.679Z,1.80
2022-09-05T01:03:50.806Z,1.90
2022-09-05T01:04:48.214Z,1.80
2022-09-05T01:05:48.188Z,2.00
2022-09-05T01:06:48.184Z,1.60
2022-09-05T01:07:48.193Z,1.90
2022-09-05T01:08:48.166Z,1.70
2022-09-05T01:09:48.142Z,1.60
2022-09-05T01:10:48.135Z,2.10
2022-09-05T01:11:48.741Z,1.70
2022-09-05T01:12:52.660Z,1.60
2022-09-05T01:13:49.114Z,1.90
2022-09-05T01:14:48.105Z,1.80
2022-09-05T01:15:48.772Z,1.80
2022-09-05T01:16:48.066Z,1.80
2022-09-05T01:17:48.370Z,1.80
2022-09-05T01:18:48.060Z,1.80
2022-09-05T01:19:48.032Z,1.90
2022-09-05T01:20:48.027Z,2.00
2022-09-05T01:21:48.735Z,1.50
2022-09-05T01:22:48.034Z,1.80
2022-09-05T01:23:47.990Z,1.70
2022-09-05T01:24:47.981Z,1.60
2022-09-05T01:25:52.549Z,2.00
2022-09-05T01:26:50.740Z,1.80
2022-09-05T01:28:55.001Z,1.90
2022-09-05T01:29:17.128Z,1.90
2022-09-05T01:29:48.924Z,1.80
2022-09-05T01:30:47.971Z,1.80
2022-09-05T01:31:47.903Z,1.80
2022-09-05T01:32:48.741Z,1.80
2022-09-05T01:33:48.260Z,1.80
2022-09-05T01:34:49.801Z,1.70
2022-09-05T01:36:00.547Z,1.70
2022-09-05T01:36:48.854Z,2.00
2022-09-05T01:37:47.837Z,1.50
2022-09-05T01:39:51.647Z,1.90
2022-09-05T01:40:14.921Z,1.80
2022-09-05T01:40:53.636Z,1.80
2022-09-05T01:41:49.734Z,1.90
2022-09-05T01:42:47.781Z,1.90
2022-09-05T01:43:48.739Z,1.80
2022-09-05T01:44:47.777Z,1.60
2022-09-05T01:45:50.587Z,1.90
2022-09-05T01:46:47.745Z,1.80
2022-09-05T01:47:47.746Z,2.00
2022-09-05T01:48:47.998Z,1.80
2022-09-05T01:49:47.716Z,2.00
2022-09-05T01:50:47.691Z,1.90
2022-09-05T01:51:54.243Z,2.10
2022-09-05T01:52:57.343Z,2.00
2022-09-05T01:53:49.239Z,2.10
2022-09-05T01:54:47.784Z,1.80
2022-09-05T01:56:05.971Z,1.80
2022-09-05T01:56:49.244Z,2.00
2022-09-05T01:57:47.623Z,1.80
2022-09-05T01:58:47.627Z,1.80
2022-09-05T01:59:47.621Z,1.90
2022-09-05T02:00:47.589Z,1.90
2022-09-05T02:01:47.614Z,2.10
2022-09-05T02:02:50.269Z,2.20
2022-09-05T02:03:47.545Z,2.10
2022-09-05T02:04:47.553Z,2.30
2022-09-05T02:05:49.662Z,2.00
2022-09-05T02:06:47.510Z,2.30
2022-09-05T02:07:47.501Z,2.20
2022-09-05T02:08:47.523Z,2.30
2022-09-05T02:09:47.489Z,2.10
2022-09-05T02:10:47.469Z,2.20
2022-09-05T02:11:47.449Z,2.30
2022-09-05T02:13:02.323Z,2.20
2022-09-05T02:13:48.438Z,2.10
2022-09-05T02:14:47.435Z,2.20
2022-09-05T02:15:58.921Z,2.30
2022-09-05T02:16:48.409Z,2.40
2022-09-05T02:17:50.466Z,2.40
2022-09-05T02:18:47.378Z,2.80
2022-09-05T02:19:48.436Z,2.10
2022-09-05T02:20:47.771Z,2.50
2022-09-05T02:21:56.451Z,2.20
2022-09-05T02:22:48.359Z,2.70
2022-09-05T02:23:47.784Z,2.20
2022-09-05T02:24:47.305Z,2.10
2022-09-05T02:26:02.517Z,2.50
2022-09-05T02:26:48.297Z,2.20
2022-09-05T02:28:04.615Z,2.30
2022-09-05T02:28:48.298Z,2.00
2022-09-05T02:29:47.258Z,2.20
2022-09-05T02:30:48.456Z,2.30
2022-09-05T02:31:48.286Z,2.20
2022-09-05T02:32:53.757Z,2.50
2022-09-05T02:33:47.208Z,2.60
2022-09-05T02:34:47.227Z,2.30
2022-09-05T02:35:47.202Z,2.30
2022-09-05T02:36:47.177Z,2.30
2022-09-05T02:39:20.001Z,2.10
2022-09-05T02:40:53.490Z,2.30
2022-09-05T02:45:01.220Z,2.20
2022-09-05T02:45:07.591Z,2.40
2022-09-05T02:45:09.200Z,2.30
2022-09-05T02:45:10.274Z,2.40
2022-09-05T02:45:18.726Z,2.20
2022-09-05T02:45:21.695Z,2.70
2022-09-05T02:45:48.856Z,2.30
2022-09-05T02:46:47.187Z,2.30
2022-09-05T02:47:47.064Z,2.40
2022-09-05T02:48:47.047Z,2.30
2022-09-05T02:52:10.564Z,2.50
2022-09-05T02:54:10.913Z,2.30
2022-09-05T02:57:23.439Z,2.30
2022-09-05T02:57:27.377Z,2.10
2022-09-05T02:57:33.495Z,2.60
2022-09-05T02:57:36.696Z,2.20
2022-09-05T02:57:41.945Z,2.30
2022-09-05T02:57:42.872Z,2.50
2022-09-05T02:58:05.968Z,2.70
2022-09-05T02:59:09.113Z,2.50
2022-09-05T02:59:48.746Z,2.50
2022-09-05T03:00:48.165Z,2.40
2022-09-05T03:01:47.025Z,2.70
2022-09-05T03:02:46.922Z,2.30
2022-09-05T03:03:47.751Z,2.50
2022-09-05T03:04:47.778Z,2.50
2022-09-05T03:05:46.851Z,2.50
2022-09-05T03:06:46.850Z,2.70
2022-09-05T03:07:46.860Z,2.30
2022-09-05T03:08:49.756Z,2.50
2022-09-05T03:09:47.769Z,2.60
2022-09-05T03:10:54.154Z,2.50
2022-09-05T03:11:47.785Z,2.50
2022-09-05T03:12:46.790Z,2.40
2022-09-05T03:13:51.768Z,2.60
2022-09-05T03:14:47.750Z,2.70
2022-09-05T03:15:46.751Z,2.50
2022-09-05T03:16:47.295Z,2.60
2022-09-05T03:17:46.722Z,2.80
2022-09-05T03:18:46.712Z,2.80
2022-09-05T03:19:46.988Z,2.80
2022-09-05T03:20:49.249Z,2.90
2022-09-05T03:21:46.685Z,2.80
2022-09-05T03:22:46.668Z,3.00
2022-09-05T03:23:49.259Z,2.50
2022-09-05T03:24:55.597Z,2.70
2022-09-05T03:25:47.650Z,2.60
2022-09-05T03:26:49.250Z,2.90
2022-09-05T03:27:46.606Z,2.70
2022-09-05T03:28:46.607Z,2.80
2022-09-05T03:29:46.595Z,2.60
2022-09-05T03:30:46.668Z,2.70
2022-09-05T03:31:46.567Z,3.00
2022-09-05T03:32:46.565Z,2.70
2022-09-05T03:33:46.551Z,3.00
2022-09-05T03:34:46.531Z,2.60
2022-09-05T03:35:46.522Z,2.40
2022-09-05T03:36:46.530Z,2.70
2022-09-05T03:37:46.501Z,2.50
2022-09-05T03:38:47.070Z,2.60
2022-09-05T03:39:46.504Z,2.80
2022-09-05T03:40:46.477Z,2.80
2022-09-05T03:41:47.253Z,3.20
2022-09-05T03:42:46.450Z,2.80
2022-09-05T03:43:47.247Z,2.40
2022-09-05T03:44:46.439Z,2.80
2022-09-05T03:45:48.351Z,2.70
2022-09-05T03:46:47.273Z,2.40
2022-09-05T03:47:46.402Z,2.60
2022-09-05T03:48:46.420Z,2.60
2022-09-05T03:52:58.371Z,2.70
2022-09-05T03:54:39.735Z,2.50
2022-09-05T03:57:07.071Z,2.80
2022-09-05T03:57:11.773Z,2.80
2022-09-05T03:57:20.297Z,2.60
2022-09-05T03:57:20.511Z,2.70
2022-09-05T03:57:23.975Z,2.60
2022-09-05T03:57:26.493Z,2.70
2022-09-05T03:57:47.279Z,2.80
2022-09-05T03:59:01.945Z,2.90
2022-09-05T03:59:47.278Z,2.90
2022-09-05T04:00:46.253Z,2.90
2022-09-05T04:05:51.620Z,2.70
2022-09-05T04:07:36.702Z,3.00
2022-09-05T04:08:19.485Z,2.80
2022-09-05T04:08:20.644Z,2.70
2022-09-05T04:08:23.962Z,3.20
2022-09-05T04:08:26.331Z,3.00
2022-09-05T04:08:26.761Z,2.90
2022-09-05T04:08:48.290Z,2.80
2022-09-05T04:09:51.572Z,2.80
2022-09-05T04:10:47.323Z,2.90
2022-09-05T04:11:46.121Z,3.30
2022-09-05T04:12:46.118Z,3.20
2022-09-05T04:13:46.123Z,3.30
2022-09-05T04:14:46.095Z,3.00
2022-09-05T04:15:46.091Z,2.80
2022-09-05T04:16:46.149Z,2.90
2022-09-05T04:17:46.085Z,2.90
2022-09-05T04:18:46.047Z,3.10
2022-09-05T04:19:49.067Z,3.00
2022-09-05T04:20:46.027Z,3.20
2022-09-05T04:21:46.023Z,2.40
2022-09-05T04:22:46.054Z,3.10
2022-09-05T04:23:45.996Z,2.90
2022-09-05T04:24:45.981Z,2.70
2022-09-05T04:25:45.979Z,3.00
2022-09-05T04:26:45.960Z,2.50
2022-09-05T04:27:45.946Z,2.60
2022-09-05T04:28:51.680Z,2.90
2022-09-05T04:29:46.927Z,2.80
2022-09-05T04:30:45.919Z,2.80
2022-09-05T04:31:46.072Z,2.70
2022-09-05T04:32:45.899Z,3.20
2022-09-05T04:33:45.903Z,2.60
2022-09-05T04:34:45.870Z,3.00
2022-09-05T04:35:45.858Z,3.30
2022-09-05T04:36:45.846Z,2.50
2022-09-05T04:37:47.907Z,2.70
2022-09-05T04:38:48.762Z,2.70
2022-09-05T04:39:45.900Z,2.70
2022-09-05T04:40:45.810Z,2.90
2022-09-05T04:41:45.802Z,2.70
2022-09-05T04:42:45.775Z,2.60
2022-09-05T04:43:45.774Z,2.30
2022-09-05T04:44:45.756Z,2.30
2022-09-05T04:45:45.864Z,2.30
2022-09-05T04:46:47.820Z,2.50
2022-09-05T04:47:45.729Z,2.50
2022-09-05T04:48:45.710Z,2.40
2022-09-05T04:49:45.714Z,2.50
2022-09-05T04:50:45.713Z,2.20
2022-09-05T04:51:45.687Z,2.50
2022-09-05T04:52:46.672Z,2.60
2022-09-05T04:53:45.650Z,2.40
2022-09-05T04:54:45.648Z,2.30
2022-09-05T04:55:51.070Z,2.50
2022-09-05T04:56:46.651Z,2.40
2022-09-05T04:57:45.617Z,2.60
2022-09-05T05:00:36.792Z,2.50
2022-09-05T05:02:51.968Z,2.30
2022-09-05T05:05:59.890Z,2.30
2022-09-05T05:06:01.008Z,2.50
2022-09-05T05:06:02.873Z,2.30
2022-09-05T05:06:13.322Z,2.60
2022-09-05T05:06:18.347Z,2.60
2022-09-05T05:06:19.741Z,2.30
2022-09-05T05:06:47.514Z,2.40
2022-09-05T05:07:45.668Z,2.60
2022-09-05T05:08:46.367Z,2.50
2022-09-05T05:09:46.266Z,2.50
2022-09-05T05:13:43.689Z,2.30
2022-09-05T05:16:39.747Z,2.50
2022-09-05T05:17:55.435Z,2.60
2022-09-05T05:18:03.135Z,2.40
2022-09-05T05:18:03.223Z,2.40
2022-09-05T05:18:11.663Z,2.60
2022-09-05T05:18:11.815Z,2.60
2022-09-05T05:18:14.685Z,2.40
2022-09-05T05:18:57.642Z,2.60
2022-09-05T05:19:47.350Z,2.60
2022-09-05T05:20:46.384Z,2.50
2022-09-05T05:21:45.362Z,2.80
2022-09-05T05:22:46.271Z,2.50
2022-09-05T05:23:45.334Z,2.80
2022-09-05T05:24:45.311Z,2.60
2022-09-05T05:25:45.345Z,2.90
2022-09-05T05:26:45.303Z,3.00
2022-09-05T05:27:45.288Z,2.80
2022-09-05T05:28:45.771Z,2.90
2022-09-05T05:29:45.270Z,2.90
2022-09-05T05:30:45.253Z,2.80
2022-09-05T05:31:46.326Z,2.90
2022-09-05T05:32:46.755Z,2.70
2022-09-05T05:33:45.222Z,2.80
2022-09-05T05:34:45.204Z,2.80
2022-09-05T05:35:48.535Z,2.50
2022-09-05T05:36:45.312Z,2.80
2022-09-05T05:37:45.195Z,2.90
2022-09-05T05:38:45.171Z,3.10
2022-09-05T05:39:45.244Z,3.10
2022-09-05T05:40:50.963Z,3.00
2022-09-05T05:41:46.116Z,3.10
2022-09-05T05:42:45.112Z,2.80
2022-09-05T05:43:46.721Z,2.80
2022-09-05T05:44:45.112Z,2.90
2022-09-05T05:45:45.155Z,2.50
2022-09-05T05:46:45.072Z,2.80
2022-09-05T05:47:45.059Z,2.70
2022-09-05T05:48:47.005Z,2.80
2022-09-05T05:49:46.790Z,2.60
2022-09-05T05:50:45.028Z,2.80
2022-09-05T05:52:02.634Z,2.70
2022-09-05T05:52:46.011Z,2.90
2022-09-05T05:53:52.483Z,2.80
2022-09-05T05:54:45.776Z,3.00
2022-09-05T05:55:52.087Z,2.70
2022-09-05T05:56:45.973Z,2.90
2022-09-05T05:57:44.961Z,2.50
2022-09-05T05:58:47.774Z,2.80
2022-09-05T05:59:56.390Z,2.80
2022-09-05T06:00:50.771Z,3.10
2022-09-05T06:01:46.094Z,2.70
2022-09-05T06:02:45.014Z,2.70
2022-09-05T06:03:45.935Z,2.90
2022-09-05T06:04:45.518Z,2.90
2022-09-05T06:05:44.856Z,3.00
2022-09-05T06:06:44.874Z,2.90
2022-09-05T06:09:00.918Z,3.00
2022-09-05T06:09:45.941Z,3.00
2022-09-05T06:14:49.881Z,2.70
2022-09-05T06:14:54.846Z,2.90
2022-09-05T06:14:56.827Z,2.60
2022-09-05T06:15:06.635Z,2.80
2022-09-05T06:15:06.830Z,2.60
2022-09-05T06:15:08.737Z,3.00
2022-09-05T06:15:45.797Z,2.80
2022-09-05T06:16:44.804Z,2.80
2022-09-05T06:17:47.285Z,2.80
2022-09-05T06:18:51.276Z,2.90
2022-09-05T06:19:58.277Z,2.90
2022-09-05T06:22:07.670Z,2.50
2022-09-05T06:22:11.590Z,2.60
2022-09-05T06:22:45.685Z,2.90
2022-09-05T06:23:45.142Z,2.80
2022-09-05T06:24:44.660Z,3.00
2022-09-05T06:25:44.651Z,2.80
2022-09-05T06:26:44.629Z,2.70
2022-09-05T06:28:18.069Z,2.70
2022-09-05T06:28:46.284Z,2.50
2022-09-05T06:29:47.209Z,2.90
2022-09-05T06:30:44.603Z,2.80
2022-09-05T06:31:44.595Z,3.10
2022-09-05T06:32:55.311Z,2.80
2022-09-05T06:33:52.272Z,3.30
2022-09-05T06:34:44.547Z,2.90
2022-09-05T06:35:45.007Z,2.80
2022-09-05T06:36:44.527Z,2.50
2022-09-05T06:37:44.524Z,2.90
2022-09-05T06:38:45.520Z,2.60
2022-09-05T06:39:46.532Z,2.70
2022-09-05T06:40:44.470Z,2.70
2022-09-05T06:41:47.286Z,2.90
2022-09-05T06:42:44.464Z,2.70
2022-09-05T06:43:44.444Z,2.60
2022-09-05T06:44:44.430Z,2.60
2022-09-05T06:45:47.373Z,2.70
2022-09-05T06:47:22.172Z,3.10
2022-09-05T06:47:45.464Z,2.30
2022-09-05T06:48:53.345Z,2.60
2022-09-05T06:49:46.153Z,2.60
2022-09-05T06:51:07.312Z,2.60
2022-09-05T06:51:46.413Z,2.30
2022-09-05T06:52:45.404Z,2.30
2022-09-05T06:53:44.349Z,2.20
2022-09-05T06:54:47.210Z,2.10
2022-09-05T06:55:48.298Z,2.20
2022-09-05T06:56:44.300Z,2.10
2022-09-05T06:57:44.569Z,2.00
2022-09-05T06:58:50.791Z,1.80
2022-09-05T06:59:44.280Z,1.80
2022-09-05T07:00:44.285Z,2.10
2022-09-05T07:01:59.699Z,1.70
2022-09-05T07:02:59.864Z,1.90
2022-09-05T07:03:52.275Z,1.80
2022-09-05T07:05:23.663Z,1.90
2022-09-05T07:05:45.731Z,2.00
2022-09-05T07:07:02.334Z,1.80
2022-09-05T07:07:46.179Z,1.90
2022-09-05T07:08:46.788Z,1.80
2022-09-05T07:09:44.148Z,1.60
2022-09-05T07:10:44.320Z,2.10
2022-09-05T07:11:44.127Z,1.90
2022-09-05T07:12:44.125Z,1.70
2022-09-05T07:13:44.893Z,2.00
2022-09-05T07:14:44.096Z,1.90
2022-09-05T07:15:44.082Z,1.90
2022-09-05T07:16:44.201Z,1.90
2022-09-05T07:18:09.043Z,1.90
2022-09-05T07:18:45.785Z,1.80
2022-09-05T07:19:44.047Z,1.80
2022-09-05T07:21:15.642Z,1.80
2022-09-05T07:21:45.323Z,1.70
2022-09-05T07:22:48.805Z,1.60
2022-09-05T07:24:09.457Z,1.40
2022-09-05T07:24:54.554Z,1.70
2022-09-05T07:25:44.973Z,1.70
2022-09-05T07:26:53.722Z,1.70
2022-09-05T07:28:26.853Z,1.70
2022-09-05T07:28:44.950Z,1.50
2022-09-05T07:30:00.808Z,1.50
2022-09-05T07:30:44.909Z,1.80
2022-09-05T07:31:44.840Z,1.50
2022-09-05T07:32:43.893Z,1.50
2022-09-05T07:33:43.885Z,1.60
2022-09-05T07:34:44.314Z,1.50
2022-09-05T07:35:43.860Z,1.80
2022-09-05T07:36:43.863Z,1.70
2022-09-05T07:37:43.834Z,1.60
2022-09-05T07:38:52.361Z,1.80
2022-09-05T07:39:44.944Z,1.70
2022-09-05T07:40:43.861Z,1.70
2022-09-05T07:41:43.799Z,1.50
2022-09-05T07:42:46.291Z,1.60
2022-09-05T07:43:44.785Z,1.50
2022-09-05T07:44:43.762Z,1.80
2022-09-05T07:45:52.240Z,1.40
2022-09-05T07:46:44.740Z,1.20
2022-09-05T07:47:43.748Z,1.20
2022-09-05T07:48:43.723Z,1.50
2022-09-05T07:49:57.961Z,1.30
2022-09-05T07:54:33.215Z,1.60
2022-09-05T07:56:51.097Z,1.50
2022-09-05T07:56:54.204Z,1.60
2022-09-05T07:56:56.490Z,1.30
2022-09-05T07:56:58.568Z,1.40
2022-09-05T07:57:03.982Z,1.50
2022-09-05T07:57:08.678Z,1.20
2022-09-05T07:57:51.675Z,1.30
2022-09-05T07:58:44.608Z,1.20
2022-09-05T07:59:43.619Z,1.20
2022-09-05T08:00:44.343Z,1.30
2022-09-05T08:01:43.609Z,1.10
2022-09-05T08:02:46.468Z,1.10
2022-09-05T08:03:43.555Z,1.30
2022-09-05T08:04:45.064Z,1.00
2022-09-05T08:05:44.294Z,1.10
2022-09-05T08:07:46.774Z,1.00
2022-09-05T08:07:48.192Z,1.30
2022-09-05T08:08:55.865Z,1.30
2022-09-05T08:10:05.968Z,0.90
2022-09-05T08:11:23.772Z,1.00
2022-09-05T08:11:44.462Z,1.00
2022-09-05T08:12:48.094Z,1.00
2022-09-05T08:13:46.418Z,1.00
2022-09-05T08:14:45.850Z,1.00
2022-09-05T08:16:10.135Z,0.70
2022-09-05T08:16:44.450Z,0.90
2022-09-05T08:17:43.419Z,1.00
2022-09-05T08:18:43.411Z,0.80
2022-09-05T08:19:43.381Z,0.80
2022-09-05T08:20:43.364Z,0.80
2022-09-05T08:21:43.359Z,0.80
2022-09-05T08:22:52.125Z,0.90
2022-09-05T08:23:45.415Z,0.90
2022-09-05T08:24:44.310Z,0.80
2022-09-05T08:25:57.467Z,0.70
2022-09-05T08:26:47.462Z,0.90
2022-09-05T08:27:43.799Z,0.80
2022-09-05T08:28:43.265Z,0.70
2022-09-05T08:29:51.267Z,0.70
2022-09-05T08:30:44.264Z,0.80
2022-09-05T08:31:43.355Z,1.00
2022-09-05T08:32:43.236Z,0.70
2022-09-05T08:33:43.803Z,0.60
2022-09-05T08:34:44.629Z,0.80
2022-09-05T08:35:43.261Z,0.70
2022-09-05T08:36:43.805Z,0.60
2022-09-05T08:37:43.206Z,0.50
2022-09-05T08:38:43.794Z,0.60
2022-09-05T08:39:43.215Z,0.80
2022-09-05T08:40:43.168Z,0.70
2022-09-05T08:41:49.486Z,0.60
2022-09-05T08:42:49.374Z,0.80
2022-09-05T08:46:36.977Z,0.70
2022-09-05T08:46:39.830Z,0.60
2022-09-05T08:46:44.402Z,0.70
2022-09-05T08:46:49.805Z,0.60
2022-09-05T08:47:45.430Z,0.60
2022-09-05T08:48:43.367Z,1.00
2022-09-05T08:49:46.234Z,0.70
2022-09-05T08:50:43.031Z,0.50
2022-09-05T08:51:55.233Z,0.50
2022-09-05T08:52:44.013Z,0.50
2022-09-05T08:53:46.309Z,0.60
2022-09-05T08:54:43.340Z,0.50
2022-09-05T08:55:43.808Z,0.70
2022-09-05T08:56:42.972Z,0.50
2022-09-05T08:57:42.977Z,0.60
2022-09-05T08:58:42.947Z,0.60
2022-09-05T08:59:47.821Z,0.50
2022-09-05T09:00:44.000Z,0.50
2022-09-05T09:02:02.001Z,0.60
2022-09-05T09:02:48.445Z,0.70
2022-09-05T09:03:52.045Z,0.60
2022-09-05T09:05:01.398Z,0.70
2022-09-05T09:06:12.791Z,0.70
2022-09-05T09:06:43.876Z,0.70
2022-09-05T09:07:51.017Z,0.70
2022-09-05T09:08:43.840Z,0.70
2022-09-05T09:09:43.814Z,0.60
2022-09-05T09:10:42.818Z,0.50
2022-09-05T09:11:42.813Z,0.60
2022-09-05T09:12:42.832Z,0.70
2022-09-05T09:13:57.308Z,0.60
2022-09-05T09:14:43.316Z,0.60
2022-09-05T09:15:42.791Z,0.40
2022-09-05T09:16:42.750Z,0.60
2022-09-05T09:17:42.735Z,0.50
2022-09-05T09:18:42.739Z,0.50
2022-09-05T09:19:43.306Z,0.60
2022-09-05T09:20:45.057Z,0.60
2022-09-05T09:21:43.315Z,0.60
2022-09-05T09:22:43.328Z,0.90
2022-09-05T09:23:42.815Z,0.70
2022-09-05T09:24:42.662Z,0.40
2022-09-05T09:25:42.655Z,0.60
2022-09-05T09:26:42.640Z,0.50
2022-09-05T09:28:43.705Z,0.60
2022-09-05T09:28:48.960Z,0.60
2022-09-05T09:29:44.314Z,0.60
2022-09-05T09:30:45.327Z,0.40
2022-09-05T09:31:42.950Z,0.50
2022-09-05T09:32:43.340Z,0.60
2022-09-05T09:33:42.565Z,0.40
2022-09-05T09:34:45.740Z,0.50
2022-09-05T09:35:45.314Z,0.30
2022-09-05T09:36:42.531Z,0.60
2022-09-05T09:37:51.704Z,0.70
2022-09-05T09:38:43.512Z,0.50
2022-09-05T09:39:42.544Z,0.50
2022-09-05T09:40:47.399Z,0.60
2022-09-05T09:41:43.501Z,0.50
2022-09-05T09:42:42.467Z,0.40
2022-09-05T09:43:52.563Z,0.40
2022-09-05T09:44:43.436Z,0.50
2022-09-05T09:45:49.321Z,0.50
2022-09-05T09:46:42.563Z,0.40
2022-09-05T09:47:45.324Z,0.90
2022-09-05T09:48:42.389Z,0.50
2022-09-05T09:49:42.392Z,0.50
2022-09-05T09:50:47.811Z,0.70
2022-09-05T09:51:51.334Z,0.30
2022-09-05T09:52:42.367Z,0.40
2022-09-05T09:53:42.340Z,0.40
2022-09-05T09:54:42.362Z,0.40
2022-09-05T09:55:42.316Z,0.40
2022-09-05T09:56:42.306Z,0.50
2022-09-05T09:57:42.326Z,0.40
2022-09-05T09:58:42.279Z,0.40
2022-09-05T09:59:54.156Z,0.40
2022-09-05T10:00:43.284Z,0.60
2022-09-05T10:01:42.325Z,0.40
2022-09-05T10:05:46.236Z,0.20
2022-09-05T10:10:04.441Z,0.20
2022-09-05T10:10:39.463Z,0.30
2022-09-05T10:10:40.083Z,0.30
2022-09-05T10:10:43.855Z,0.40
2022-09-05T10:10:47.495Z,0.30
2022-09-05T10:10:53.743Z,1.10
2022-09-05T10:11:18.784Z,0.40
2022-09-05T10:11:22.782Z,0.30
2022-09-05T10:11:53.604Z,0.40
2022-09-05T10:12:43.131Z,0.30
2022-09-05T10:13:42.129Z,0.40
2022-09-05T10:14:50.845Z,0.30
2022-09-05T10:15:43.173Z,0.30
2022-09-05T10:16:42.100Z,0.40
2022-09-05T10:17:42.080Z,0.50
2022-09-05T10:18:44.831Z,0.40
2022-09-05T10:20:12.079Z,0.30
2022-09-05T10:20:43.045Z,0.30
2022-09-05T10:21:42.055Z,0.30
2022-09-05T10:22:42.032Z,0.20
2022-09-05T10:23:44.557Z,0.20
2022-09-05T10:24:42.428Z,0.40
2022-09-05T10:25:48.838Z,0.30
2022-09-05T10:26:42.003Z,0.40
2022-09-05T10:27:44.487Z,0.30
2022-09-05T10:28:41.958Z,0.30
2022-09-05T10:29:44.834Z,0.30
2022-09-05T10:31:55.592Z,0.20
2022-09-05T10:35:02.733Z,0.20
2022-09-05T10:35:08.404Z,0.30
2022-09-05T10:35:11.676Z,0.20
2022-09-05T10:35:13.965Z,0.50
2022-09-05T10:35:42.932Z,0.30
2022-09-05T10:36:41.877Z,0.30
2022-09-05T10:37:41.898Z,0.40
2022-09-05T10:38:43.005Z,0.70
2022-09-05T10:39:41.869Z,0.40
2022-09-05T10:41:05.144Z,0.50
2022-09-05T10:41:42.820Z,0.30
2022-09-05T10:42:43.537Z,0.40
2022-09-05T10:43:42.854Z,0.30
2022-09-05T10:44:44.333Z,0.30
2022-09-05T10:45:41.777Z,0.20
2022-09-05T10:46:56.483Z,0.20
2022-09-05T10:47:42.743Z,0.40
2022-09-05T10:48:42.334Z,0.40
2022-09-05T10:49:41.754Z,0.20
2022-09-05T10:50:42.337Z,0.30
2022-09-05T10:51:41.706Z,0.30
2022-09-05T10:52:41.698Z,0.20
2022-09-05T10:53:41.690Z,0.30
2022-09-05T10:54:41.678Z,0.40
2022-09-05T10:55:41.667Z,0.30
2022-09-05T10:56:41.666Z,0.40
2022-09-05T10:57:48.339Z,0.30
2022-09-05T10:59:19.085Z,0.30
2022-09-05T11:02:22.307Z,0.20
2022-09-05T11:02:23.486Z,0.40
2022-09-05T11:02:27.306Z,0.30
2022-09-05T11:02:47.320Z,0.20
2022-09-05T11:03:43.413Z,0.30
2022-09-05T11:04:50.002Z,0.30
2022-09-05T11:05:42.578Z,0.20
2022-09-05T11:06:41.551Z,0.10
2022-09-05T11:07:42.343Z,0.30
2022-09-05T11:08:41.529Z,0.40
2022-09-05T11:09:41.520Z,0.20
2022-09-05T11:10:41.502Z,0.30
2022-09-05T11:11:41.490Z,0.20
2022-09-05T11:12:41.500Z,0.40
2022-09-05T11:13:41.463Z,0.20
2022-09-05T11:14:42.345Z,0.10
2022-09-05T11:15:42.365Z,0.20
2022-09-05T11:16:43.393Z,0.30
2022-09-05T11:17:41.424Z,0.20
2022-09-05T11:18:55.116Z,0.30
2022-09-05T11:19:42.396Z,0.70
2022-09-05T11:20:41.428Z,0.20
2022-09-05T11:21:41.383Z,0.30
2022-09-05T11:22:42.340Z,0.20
2022-09-05T11:23:41.368Z,0.10
2022-09-05T11:24:42.349Z,0.40
2022-09-05T11:25:47.849Z,0.30
2022-09-05T11:26:41.349Z,0.20
2022-09-05T11:27:41.322Z,0.20
2022-09-05T11:28:59.930Z,0.30
2022-09-05T11:29:42.303Z,0.30
2022-09-05T11:30:47.875Z,0.20
2022-09-05T11:32:22.461Z,0.20
2022-09-05T11:39:46.915Z,0.20
2022-09-05T11:39:52.578Z,0.20
2022-09-05T11:39:54.427Z,0.20
2022-09-05T11:39:58.054Z,0.90
2022-09-05T11:39:58.119Z,0.30
2022-09-05T11:39:58.168Z,0.30
2022-09-05T11:40:00.164Z,0.30
2022-09-05T11:40:02.701Z,0.20
2022-09-05T11:41:42.239Z,0.20
2022-09-05T11:42:41.382Z,0.20
2022-09-05T11:43:41.839Z,0.20
2022-09-05T11:44:41.138Z,0.30
2022-09-05T11:45:41.425Z,0.20
2022-09-05T11:46:43.880Z,0.30
2022-09-05T11:47:47.855Z,0.40
2022-09-05T11:48:41.851Z,0.20
2022-09-05T11:49:44.852Z,0.50
2022-09-05T11:50:41.073Z,0.40
2022-09-05T11:51:42.150Z,0.20
2022-09-05T11:52:41.052Z,0.20
2022-09-05T11:53:41.783Z,0.30
2022-09-05T11:54:41.025Z,0.20
2022-09-05T11:55:41.013Z,0.20
2022-09-05T11:56:45.384Z,0.20
2022-09-05T11:57:42.017Z,0.20
2022-09-05T11:58:53.837Z,0.20
2022-09-05T11:59:44.962Z,0.30
2022-09-05T12:00:40.963Z,0.20
2022-09-05T12:01:43.662Z,0.30
2022-09-05T12:02:41.025Z,0.30
2022-09-05T12:03:59.605Z,0.20
2022-09-05T12:04:42.006Z,0.30
2022-09-05T12:05:50.018Z,2.10
2022-09-05T12:06:49.283Z,0.80
2022-09-05T12:07:41.898Z,0.40
2022-09-05T12:08:40.884Z,0.20
2022-09-05T12:09:40.861Z,0.40
2022-09-05T12:10:46.330Z,0.30
2022-09-05T12:11:43.237Z,0.40
2022-09-05T12:12:41.909Z,0.30
2022-09-05T12:13:43.360Z,0.20
2022-09-05T12:14:44.139Z,0.30
2022-09-05T12:16:07.613Z,0.30
2022-09-05T12:16:41.912Z,0.20
2022-09-05T12:17:47.401Z,0.40
2022-09-05T12:18:43.364Z,0.30
2022-09-05T12:19:40.763Z,0.20
2022-09-05T12:20:43.139Z,0.30
2022-09-05T12:21:47.356Z,0.30
2022-09-05T12:22:40.726Z,0.30
2022-09-05T12:24:10.288Z,0.30
2022-09-05T12:25:26.362Z,0.30
2022-09-05T12:27:39.514Z,0.20
2022-09-05T12:27:41.007Z,0.40
2022-09-05T12:27:46.457Z,0.30
2022-09-05T12:29:35.273Z,0.30
2022-09-05T12:29:49.420Z,0.30
2022-09-05T12:31:10.006Z,0.20
2022-09-05T12:36:01.232Z,0.30
2022-09-05T12:36:07.147Z,0.10
2022-09-05T12:36:08.653Z,0.20
2022-09-05T12:36:12.957Z,0.20
2022-09-05T12:40:27.585Z,0.20
2022-09-05T12:40:56.858Z,0.20
2022-09-05T12:40:57.820Z,0.20
2022-09-05T12:41:33.447Z,0.30
2022-09-05T12:41:35.805Z,0.20
2022-09-05T12:42:08.530Z,0.30
2022-09-05T12:42:15.199Z,0.30
2022-09-05T12:42:54.652Z,0.40
2022-09-05T12:44:38.636Z,0.30
2022-09-05T12:44:44.690Z,0.30
2022-09-05T12:45:41.480Z,0.30
2022-09-05T12:46:40.477Z,0.30
2022-09-05T12:47:40.480Z,0.20
2022-09-05T12:48:40.900Z,0.30
2022-09-05T12:49:51.820Z,0.10
2022-09-05T12:50:41.368Z,0.30
2022-09-05T12:51:46.992Z,0.50
2022-09-05T12:52:44.901Z,0.30
2022-09-05T12:53:40.927Z,0.10
2022-09-05T12:54:40.383Z,0.20
2022-09-05T12:55:47.017Z,0.40
2022-09-05T12:58:27.106Z,0.20
2022-09-05T13:01:19.081Z,0.20
2022-09-05T13:02:58.282Z,0.10
2022-09-05T13:03:06.944Z,0.40
2022-09-05T13:03:09.579Z,0.30
2022-09-05T13:03:11.798Z,0.20
2022-09-05T13:03:11.950Z,0.20
2022-09-05T13:04:05.974Z,0.20
2022-09-05T13:04:54.795Z,0.10
2022-09-05T13:05:41.336Z,0.20
2022-09-05T13:06:46.866Z,0.30
2022-09-05T13:07:40.249Z,0.30
2022-09-05T13:08:46.867Z,0.20
2022-09-05T13:10:51.271Z,0.30
2022-09-05T13:14:49.600Z,0.30
2022-09-05T13:14:56.431Z,0.20
2022-09-05T13:14:56.585Z,0.20
2022-09-05T13:14:57.662Z,0.20
2022-09-05T13:15:03.006Z,0.30
2022-09-05T13:15:41.237Z,0.30
2022-09-05T13:16:40.217Z,0.20
2022-09-05T13:17:44.269Z,0.10
2022-09-05T13:18:40.170Z,0.20
2022-09-05T13:19:40.876Z,0.20